Alfred, Texas
Current Conditions -  °F | °C
As of 5:53 PM on Sunday 21 Dec 2014 (Local Time) from KALI Reporting Station
Overcast Overcast  
Wind Chill: 61°   Ceiling: 1100
Heat Index: 61°   Visibility: 10mi
Dew Point: 55°   Wind: 0mph
Humidity: 81%   Direction: NA
Pressure: 29.93"   Gusts: NA
Location:  27.6821°N, 98.1034°W
Report Text: KALI 212353Z AUTO 00000KT 10SM OVC011 16/13 A2993 RMK AO2 SLP132 T01610128 10161 20150 56014
Loading
Personal Weather Stations






























Interactive Weather Map New forecast layout! Learn more

10-Day Weather Forecast

Advertisements
Track Severe Weather on mobile